Terminal Aerodrome Forecast
Issued by NWS

Home | Current Version | Previous Version | Text Only | Print | Product List | Glossary On
Versions: 1 2 3 4 5 6 7 8 9 10 11 12 13 14 15
000
FTUS43 KDTX 210700 AAB
TAFMBS
TAF AMD
KMBS 210741Z 2108/2206 22007KT P6SM BKN012 OVC045
      TEMPO 2108/2112 23012G20KT 3SM TSRA BKN030CB
     FM211300 36014KT P6SM BKN035 BKN060
     FM220100 36010KT P6SM BKN028=

USA.gov is the U.S. government's official web portal to all federal, state and local government web resources and services.